AWW600 EGNS-EGFF
Flight info
| Callsign | AWW600 |
|---|---|
| Flight time | 0h 46m |
| Altitude | 21000 |
| Route | TIMIS Q39 NOMSU Q4 WAL N862 WEVBE |
| Aircraft | B738/M-SDE2E3FGHIRWXY/LB1 |
Departure
| Time | 2026-04-21 19:42 |
|---|---|
| Airport | Isle of Man Airport (EGNS) |
Arrival
| Time | 2026-04-21 20:28 |
|---|---|
| Airport | Cardiff International Airport (EGFF) |
| Time | Latitude | Longitude | Altitude | Speed | Heading |
|---|---|---|---|---|---|
| 2026-04-21 19:16 | 54.08605 | -4.63213 | 37 ft | 0 kts | 224° |
| 2026-04-21 19:33 | 54.08602 | -4.63215 | 39 ft | 2 kts | 207° |
| 2026-04-21 19:34 | 54.08583 | -4.63227 | 37 ft | 3 kts | 200° |
| 2026-04-21 19:34 | 54.08562 | -4.63245 | 39 ft | 3 kts | 211° |
| 2026-04-21 19:34 | 54.08543 | -4.63267 | 38 ft | 3 kts | 216° |
| 2026-04-21 19:34 | 54.08526 | -4.63290 | 39 ft | 3 kts | 218° |
| 2026-04-21 19:35 | 54.08509 | -4.63312 | 39 ft | 3 kts | 217° |
| 2026-04-21 19:35 | 54.08475 | -4.63355 | 39 ft | 3 kts | 214° |
| 2026-04-21 19:35 | 54.08457 | -4.63372 | 39 ft | 3 kts | 206° |
| 2026-04-21 19:36 | 54.08438 | -4.63384 | 39 ft | 3 kts | 197° |
| 2026-04-21 19:36 | 54.08419 | -4.63391 | 39 ft | 3 kts | 189° |
| 2026-04-21 19:36 | 54.08400 | -4.63394 | 39 ft | 3 kts | 185° |
| 2026-04-21 19:36 | 54.08382 | -4.63401 | 38 ft | 3 kts | 198° |
| 2026-04-21 19:37 | 54.08367 | -4.63417 | 39 ft | 3 kts | 220° |
| 2026-04-21 19:37 | 54.08357 | -4.63442 | 40 ft | 3 kts | 243° |
| 2026-04-21 19:37 | 54.08352 | -4.63471 | 40 ft | 2 kts | 257° |
| 2026-04-21 19:37 | 54.08349 | -4.63499 | 41 ft | 2 kts | 259° |
| 2026-04-21 19:38 | 54.08346 | -4.63526 | 41 ft | 2 kts | 259° |
| 2026-04-21 19:38 | 54.08343 | -4.63552 | 41 ft | 2 kts | 259° |
| 2026-04-21 19:38 | 54.08341 | -4.63569 | 41 ft | 2 kts | 257° |
| 2026-04-21 19:38 | 54.08329 | -4.63627 | 42 ft | 5 kts | 246° |
| 2026-04-21 19:39 | 54.08312 | -4.63686 | 43 ft | 5 kts | 244° |
| 2026-04-21 19:39 | 54.08296 | -4.63743 | 42 ft | 5 kts | 241° |
| 2026-04-21 19:39 | 54.08278 | -4.63798 | 44 ft | 5 kts | 240° |
| 2026-04-21 19:39 | 54.08259 | -4.63851 | 45 ft | 5 kts | 236° |
| 2026-04-21 19:40 | 54.08232 | -4.63888 | 46 ft | 5 kts | 203° |
| 2026-04-21 19:40 | 54.08197 | -4.63896 | 44 ft | 5 kts | 182° |
| 2026-04-21 19:40 | 54.08161 | -4.63872 | 43 ft | 7 kts | 134° |
| 2026-04-21 19:40 | 54.08151 | -4.63823 | 44 ft | 0 kts | 91° |
| 2026-04-21 19:41 | 54.08153 | -4.63790 | 44 ft | 13 kts | 82° |
| 2026-04-21 19:41 | 54.08189 | -4.63491 | 40 ft | 63 kts | 78° |
| 2026-04-21 19:41 | 54.08329 | -4.62377 | 34 ft | 127 kts | 78° |
| 2026-04-21 19:42 | 54.08534 | -4.60662 | 257 ft | 162 kts | 80° |
| 2026-04-21 19:42 | 54.08510 | -4.58781 | 1182 ft | 158 kts | 115° |
| 2026-04-21 19:42 | 54.07661 | -4.57571 | 2082 ft | 172 kts | 153° |
| 2026-04-21 19:42 | 54.06349 | -4.57631 | 2482 ft | 216 kts | 194° |
| 2026-04-21 19:43 | 54.04921 | -4.58818 | 2735 ft | 235 kts | 193° |
| 2026-04-21 19:43 | 54.03332 | -4.59433 | 3165 ft | 235 kts | 179° |
| 2026-04-21 19:43 | 54.01708 | -4.59707 | 3751 ft | 233 kts | 176° |
| 2026-04-21 19:43 | 54.00086 | -4.59853 | 3997 ft | 233 kts | 174° |
| 2026-04-21 19:44 | 53.98468 | -4.59898 | 4024 ft | 232 kts | 173° |
| 2026-04-21 19:44 | 53.96851 | -4.59894 | 4023 ft | 233 kts | 173° |
| 2026-04-21 19:44 | 53.95277 | -4.59581 | 4009 ft | 222 kts | 151° |
| 2026-04-21 19:44 | 53.94187 | -4.57936 | 4038 ft | 209 kts | 120° |
| 2026-04-21 19:45 | 53.93395 | -4.55860 | 4019 ft | 211 kts | 121° |
| 2026-04-21 19:45 | 53.92551 | -4.53804 | 3989 ft | 213 kts | 121° |
| 2026-04-21 19:45 | 53.91708 | -4.51742 | 3990 ft | 213 kts | 121° |
| 2026-04-21 19:45 | 53.90868 | -4.49677 | 4000 ft | 213 kts | 121° |
| 2026-04-21 19:46 | 53.90030 | -4.47614 | 3987 ft | 212 kts | 121° |
| 2026-04-21 19:46 | 53.89194 | -4.45556 | 3981 ft | 212 kts | 121° |
| 2026-04-21 19:46 | 53.88352 | -4.43485 | 4151 ft | 216 kts | 122° |
| 2026-04-21 19:46 | 53.87500 | -4.41391 | 4789 ft | 216 kts | 122° |
| 2026-04-21 19:47 | 53.86645 | -4.39289 | 5451 ft | 219 kts | 122° |
| 2026-04-21 19:47 | 53.85771 | -4.37147 | 6161 ft | 222 kts | 122° |
| 2026-04-21 19:47 | 53.84892 | -4.34992 | 6887 ft | 226 kts | 122° |
| 2026-04-21 19:47 | 53.83982 | -4.32764 | 7585 ft | 230 kts | 122° |
| 2026-04-21 19:48 | 53.83066 | -4.30524 | 8271 ft | 233 kts | 123° |
| 2026-04-21 19:48 | 53.82141 | -4.28265 | 9048 ft | 233 kts | 122° |
| 2026-04-21 19:48 | 53.81204 | -4.25977 | 9666 ft | 240 kts | 123° |
| 2026-04-21 19:48 | 53.80246 | -4.23638 | 10396 ft | 241 kts | 123° |
| 2026-04-21 19:49 | 53.79290 | -4.21309 | 11129 ft | 242 kts | 123° |
| 2026-04-21 19:49 | 53.78313 | -4.18928 | 11663 ft | 250 kts | 123° |
| 2026-04-21 19:49 | 53.77309 | -4.16484 | 12297 ft | 254 kts | 123° |
| 2026-04-21 19:49 | 53.76296 | -4.14020 | 12957 ft | 259 kts | 123° |
| 2026-04-21 19:50 | 53.75264 | -4.11515 | 13745 ft | 257 kts | 123° |
| 2026-04-21 19:50 | 53.74230 | -4.09008 | 14454 ft | 261 kts | 123° |
| 2026-04-21 19:50 | 53.73181 | -4.06463 | 15002 ft | 270 kts | 124° |
| 2026-04-21 19:50 | 53.72100 | -4.03841 | 15678 ft | 271 kts | 124° |
| 2026-04-21 19:51 | 53.71037 | -4.01271 | 16583 ft | 265 kts | 124° |
| 2026-04-21 19:51 | 53.69979 | -3.98714 | 17231 ft | 270 kts | 124° |
| 2026-04-21 19:51 | 53.68879 | -3.96063 | 17739 ft | 278 kts | 124° |
| 2026-04-21 19:51 | 53.67765 | -3.93377 | 18399 ft | 283 kts | 125° |
| 2026-04-21 19:52 | 53.66620 | -3.90625 | 18726 ft | 297 kts | 125° |
| 2026-04-21 19:52 | 53.65425 | -3.87756 | 19265 ft | 301 kts | 125° |
| 2026-04-21 19:52 | 53.64204 | -3.84827 | 19681 ft | 310 kts | 125° |
| 2026-04-21 19:52 | 53.62944 | -3.81807 | 20047 ft | 321 kts | 126° |
| 2026-04-21 19:53 | 53.61649 | -3.78707 | 20540 ft | 327 kts | 126° |
| 2026-04-21 19:53 | 53.60319 | -3.75527 | 20970 ft | 334 kts | 125° |
| 2026-04-21 19:53 | 53.58972 | -3.72309 | 21123 ft | 336 kts | 125° |
| 2026-04-21 19:53 | 53.57650 | -3.69153 | 21227 ft | 329 kts | 126° |
| 2026-04-21 19:54 | 53.56300 | -3.65936 | 21394 ft | 344 kts | 126° |
| 2026-04-21 19:54 | 53.54881 | -3.62558 | 21397 ft | 363 kts | 126° |
| 2026-04-21 19:54 | 53.53396 | -3.59030 | 21418 ft | 376 kts | 124° |
| 2026-04-21 19:54 | 53.51860 | -3.55380 | 21391 ft | 385 kts | 124° |
| 2026-04-21 19:55 | 53.50319 | -3.51723 | 21383 ft | 382 kts | 125° |
| 2026-04-21 19:55 | 53.48790 | -3.48128 | 21349 ft | 377 kts | 127° |
| 2026-04-21 19:55 | 53.46988 | -3.44972 | 21389 ft | 374 kts | 143° |
| 2026-04-21 19:55 | 53.44751 | -3.42811 | 21382 ft | 371 kts | 160° |
| 2026-04-21 19:56 | 53.42286 | -3.41472 | 21401 ft | 375 kts | 164° |
| 2026-04-21 19:56 | 53.39797 | -3.40097 | 21390 ft | 376 kts | 162° |
| 2026-04-21 19:56 | 53.37323 | -3.38660 | 21378 ft | 376 kts | 162° |
| 2026-04-21 19:56 | 53.34861 | -3.37207 | 21368 ft | 375 kts | 162° |
| 2026-04-21 19:57 | 53.32397 | -3.35747 | 21381 ft | 375 kts | 162° |
| 2026-04-21 19:57 | 53.29939 | -3.34293 | 21385 ft | 375 kts | 161° |
| 2026-04-21 19:57 | 53.27479 | -3.32842 | 21378 ft | 375 kts | 162° |
| 2026-04-21 19:57 | 53.25019 | -3.31393 | 21374 ft | 375 kts | 162° |
| 2026-04-21 19:58 | 53.22560 | -3.29949 | 21387 ft | 374 kts | 162° |
| 2026-04-21 19:58 | 53.20104 | -3.28509 | 21363 ft | 374 kts | 162° |
| 2026-04-21 19:58 | 53.17646 | -3.27069 | 21370 ft | 374 kts | 162° |
| 2026-04-21 19:58 | 53.15221 | -3.25652 | 21375 ft | 374 kts | 162° |
| 2026-04-21 19:59 | 53.12765 | -3.24218 | 21374 ft | 374 kts | 162° |
| 2026-04-21 19:59 | 53.10310 | -3.22786 | 21373 ft | 374 kts | 162° |
| 2026-04-21 19:59 | 53.07853 | -3.21355 | 21376 ft | 374 kts | 162° |
| 2026-04-21 19:59 | 53.05392 | -3.19924 | 21371 ft | 375 kts | 162° |
| 2026-04-21 20:00 | 53.02927 | -3.18492 | 21378 ft | 375 kts | 162° |
| 2026-04-21 20:00 | 53.00460 | -3.17060 | 21365 ft | 376 kts | 162° |
| 2026-04-21 20:00 | 52.97991 | -3.15629 | 21368 ft | 376 kts | 162° |
| 2026-04-21 20:00 | 52.95521 | -3.14199 | 21361 ft | 376 kts | 163° |
| 2026-04-21 20:01 | 52.93048 | -3.12769 | 21371 ft | 376 kts | 163° |
| 2026-04-21 20:01 | 52.90573 | -3.11339 | 21363 ft | 377 kts | 163° |
| 2026-04-21 20:01 | 52.88098 | -3.09911 | 21357 ft | 377 kts | 163° |
| 2026-04-21 20:01 | 52.85622 | -3.08485 | 21364 ft | 377 kts | 163° |
| 2026-04-21 20:02 | 52.83141 | -3.07057 | 21365 ft | 377 kts | 163° |
| 2026-04-21 20:02 | 52.80659 | -3.05630 | 21356 ft | 378 kts | 163° |
| 2026-04-21 20:02 | 52.78172 | -3.04202 | 21366 ft | 378 kts | 163° |
| 2026-04-21 20:02 | 52.75685 | -3.02776 | 21364 ft | 379 kts | 163° |
| 2026-04-21 20:03 | 52.73197 | -3.01351 | 21355 ft | 378 kts | 163° |
| 2026-04-21 20:03 | 52.70751 | -2.99950 | 21052 ft | 367 kts | 162° |
| 2026-04-21 20:03 | 52.68376 | -2.98591 | 20798 ft | 355 kts | 162° |
| 2026-04-21 20:03 | 52.66073 | -2.97277 | 20529 ft | 345 kts | 162° |
| 2026-04-21 20:04 | 52.65988 | -2.97228 | 20516 ft | 344 kts | 162° |
| 2026-04-21 20:04 | 52.65556 | -2.96982 | 20472 ft | 343 kts | 162° |
| 2026-04-21 20:04 | 52.63356 | -2.95746 | 20222 ft | 334 kts | 164° |
| 2026-04-21 20:05 | 52.62230 | -2.95273 | 20077 ft | 329 kts | 172° |
| 2026-04-21 20:05 | 52.60158 | -2.94974 | 19846 ft | 324 kts | 182° |
| 2026-04-21 20:06 | 52.57895 | -2.95168 | 19642 ft | 329 kts | 185° |
| 2026-04-21 20:06 | 52.55595 | -2.95387 | 19404 ft | 333 kts | 184° |
| 2026-04-21 20:06 | 52.53292 | -2.95597 | 19160 ft | 329 kts | 183° |
| 2026-04-21 20:06 | 52.51024 | -2.95796 | 18912 ft | 323 kts | 182° |
| 2026-04-21 20:07 | 52.48794 | -2.95987 | 18673 ft | 319 kts | 182° |
| 2026-04-21 20:07 | 52.46574 | -2.96172 | 18398 ft | 322 kts | 183° |
| 2026-04-21 20:07 | 52.44330 | -2.96360 | 18141 ft | 324 kts | 183° |
| 2026-04-21 20:07 | 52.42075 | -2.96547 | 17866 ft | 324 kts | 182° |
| 2026-04-21 20:08 | 52.39826 | -2.96733 | 17604 ft | 322 kts | 182° |
| 2026-04-21 20:08 | 52.37589 | -2.96918 | 17333 ft | 321 kts | 182° |
| 2026-04-21 20:08 | 52.35367 | -2.97101 | 17072 ft | 319 kts | 182° |
| 2026-04-21 20:08 | 52.33204 | -2.97276 | 16791 ft | 318 kts | 183° |
| 2026-04-21 20:09 | 52.30995 | -2.97459 | 16549 ft | 320 kts | 183° |
| 2026-04-21 20:09 | 52.28772 | -2.97643 | 16376 ft | 318 kts | 182° |
| 2026-04-21 20:09 | 52.26570 | -2.97818 | 16338 ft | 315 kts | 182° |
| 2026-04-21 20:09 | 52.24395 | -2.97987 | 16311 ft | 312 kts | 182° |
| 2026-04-21 20:10 | 52.22211 | -2.98157 | 16328 ft | 316 kts | 182° |
| 2026-04-21 20:10 | 52.20012 | -2.98328 | 16315 ft | 318 kts | 182° |
| 2026-04-21 20:10 | 52.17792 | -2.98502 | 16334 ft | 319 kts | 182° |
| 2026-04-21 20:10 | 52.15574 | -2.98675 | 16322 ft | 319 kts | 182° |
| 2026-04-21 20:11 | 52.13357 | -2.98848 | 16329 ft | 319 kts | 182° |
| 2026-04-21 20:11 | 52.11148 | -2.99024 | 16231 ft | 317 kts | 182° |
| 2026-04-21 20:11 | 52.08955 | -2.99205 | 16105 ft | 314 kts | 182° |
| 2026-04-21 20:11 | 52.06772 | -2.99385 | 15968 ft | 313 kts | 182° |
| 2026-04-21 20:12 | 52.04590 | -2.99564 | 15847 ft | 314 kts | 182° |
| 2026-04-21 20:12 | 52.02405 | -2.99744 | 15751 ft | 315 kts | 182° |
| 2026-04-21 20:12 | 52.00954 | -2.99863 | 15672 ft | 316 kts | 181° |
| 2026-04-21 20:12 | 51.98013 | -3.00102 | 15519 ft | 317 kts | 182° |
| 2026-04-21 20:13 | 51.95810 | -3.00282 | 15404 ft | 317 kts | 182° |
| 2026-04-21 20:13 | 51.93603 | -3.00506 | 15124 ft | 320 kts | 184° |
| 2026-04-21 20:13 | 51.91380 | -3.00873 | 14815 ft | 321 kts | 185° |
| 2026-04-21 20:13 | 51.89170 | -3.01268 | 14511 ft | 319 kts | 184° |
| 2026-04-21 20:14 | 51.86973 | -3.01658 | 14201 ft | 317 kts | 184° |
| 2026-04-21 20:14 | 51.84782 | -3.02036 | 13857 ft | 315 kts | 182° |
| 2026-04-21 20:14 | 51.82607 | -3.02403 | 13515 ft | 313 kts | 184° |
| 2026-04-21 20:14 | 51.80446 | -3.02762 | 13212 ft | 311 kts | 182° |
| 2026-04-21 20:15 | 51.78302 | -3.03114 | 12892 ft | 309 kts | 184° |
| 2026-04-21 20:15 | 51.76172 | -3.03465 | 12592 ft | 307 kts | 181° |
| 2026-04-21 20:15 | 51.74066 | -3.03992 | 12253 ft | 309 kts | 195° |
| 2026-04-21 20:15 | 51.72162 | -3.05564 | 12009 ft | 306 kts | 208° |
| 2026-04-21 20:16 | 51.70323 | -3.07273 | 11692 ft | 304 kts | 206° |
| 2026-04-21 20:16 | 51.68492 | -3.08881 | 11362 ft | 303 kts | 204° |
| 2026-04-21 20:16 | 51.66619 | -3.10499 | 11046 ft | 300 kts | 204° |
| 2026-04-21 20:16 | 51.64805 | -3.12056 | 10746 ft | 299 kts | 205° |
| 2026-04-21 20:17 | 51.62974 | -3.13629 | 10434 ft | 298 kts | 205° |
| 2026-04-21 20:17 | 51.61127 | -3.15212 | 10100 ft | 297 kts | 204° |
| 2026-04-21 20:17 | 51.59309 | -3.16768 | 9771 ft | 295 kts | 204° |
| 2026-04-21 20:17 | 51.57503 | -3.18315 | 9360 ft | 293 kts | 204° |
| 2026-04-21 20:18 | 51.56317 | -3.19329 | 9161 ft | 291 kts | 204° |
| 2026-04-21 20:18 | 51.53935 | -3.21366 | 8770 ft | 288 kts | 204° |
| 2026-04-21 20:18 | 51.52171 | -3.22871 | 8492 ft | 286 kts | 204° |
| 2026-04-21 20:18 | 51.50443 | -3.24346 | 8201 ft | 284 kts | 203° |
| 2026-04-21 20:19 | 51.48702 | -3.25830 | 7924 ft | 283 kts | 203° |
| 2026-04-21 20:19 | 51.46971 | -3.27305 | 7630 ft | 281 kts | 203° |
| 2026-04-21 20:19 | 51.45252 | -3.28768 | 7348 ft | 279 kts | 202° |
| 2026-04-21 20:19 | 51.43544 | -3.30219 | 7077 ft | 277 kts | 202° |
| 2026-04-21 20:20 | 51.41843 | -3.31664 | 6801 ft | 276 kts | 202° |
| 2026-04-21 20:20 | 51.40228 | -3.33347 | 6471 ft | 283 kts | 221° |
| 2026-04-21 20:20 | 51.39311 | -3.36143 | 6218 ft | 291 kts | 258° |
| 2026-04-21 20:20 | 51.39449 | -3.39359 | 5931 ft | 291 kts | 283° |
| 2026-04-21 20:21 | 51.39846 | -3.42531 | 5626 ft | 291 kts | 277° |
| 2026-04-21 20:21 | 51.40102 | -3.45746 | 5320 ft | 291 kts | 275° |
| 2026-04-21 20:21 | 51.40319 | -3.48964 | 5021 ft | 291 kts | 275° |
| 2026-04-21 20:21 | 51.40530 | -3.52187 | 4727 ft | 290 kts | 275° |
| 2026-04-21 20:22 | 51.40735 | -3.55364 | 4453 ft | 283 kts | 275° |
| 2026-04-21 20:22 | 51.41920 | -3.60957 | 3897 ft | 255 kts | 327° |
| 2026-04-21 20:22 | 51.43412 | -3.61954 | 3692 ft | 214 kts | 9° |
| 2026-04-21 20:23 | 51.44630 | -3.61268 | 3529 ft | 170 kts | 53° |
| 2026-04-21 20:23 | 51.45003 | -3.59680 | 3182 ft | 144 kts | 92° |
| 2026-04-21 20:23 | 51.45046 | -3.58121 | 2691 ft | 140 kts | 77° |
| 2026-04-21 20:23 | 51.45341 | -3.56625 | 2505 ft | 142 kts | 84° |
| 2026-04-21 20:24 | 51.45324 | -3.55135 | 2436 ft | 127 kts | 95° |
| 2026-04-21 20:24 | 51.45265 | -3.53796 | 2473 ft | 117 kts | 91° |
| 2026-04-21 20:24 | 51.45112 | -3.52518 | 2451 ft | 116 kts | 104° |
| 2026-04-21 20:24 | 51.44835 | -3.51290 | 2402 ft | 117 kts | 106° |
| 2026-04-21 20:25 | 51.44553 | -3.50068 | 2257 ft | 116 kts | 107° |
| 2026-04-21 20:25 | 51.44231 | -3.48890 | 2108 ft | 115 kts | 109° |
| 2026-04-21 20:25 | 51.43881 | -3.47728 | 1945 ft | 116 kts | 109° |
| 2026-04-21 20:25 | 51.43517 | -3.46561 | 1783 ft | 117 kts | 110° |
| 2026-04-21 20:26 | 51.43153 | -3.45405 | 1628 ft | 115 kts | 112° |
| 2026-04-21 20:26 | 51.42782 | -3.44228 | 1468 ft | 122 kts | 111° |
| 2026-04-21 20:26 | 51.42379 | -3.42954 | 1273 ft | 130 kts | 111° |
| 2026-04-21 20:26 | 51.41988 | -3.41666 | 1093 ft | 129 kts | 111° |
| 2026-04-21 20:27 | 51.41572 | -3.40392 | 905 ft | 133 kts | 111° |
| 2026-04-21 20:27 | 51.41154 | -3.39072 | 729 ft | 136 kts | 110° |
| 2026-04-21 20:27 | 51.40876 | -3.38188 | 627 ft | 129 kts | 112° |
| 2026-04-21 20:27 | 51.40317 | -3.36447 | 385 ft | 131 kts | 112° |
| 2026-04-21 20:28 | 51.40048 | -3.35575 | 295 ft | 133 kts | 112° |
| 2026-04-21 20:28 | 51.39637 | -3.34272 | 230 ft | 123 kts | 112° |
| 2026-04-21 20:28 | 51.39314 | -3.33234 | 228 ft | 28 kts | 117° |
| 2026-04-21 20:28 | 51.39305 | -3.33137 | 231 ft | 12 kts | 64° |
| 2026-04-21 20:29 | 51.40432 | -3.34660 | 222 ft | 0 kts | 276° |